createdAt,value
2023-01-29T00:02:26.002Z,1.48
2023-01-29T00:04:58.716Z,1.53
2023-01-29T00:07:26.680Z,1.51
2023-01-29T00:09:54.315Z,1.54
2023-01-29T00:12:21.989Z,1.63
2023-01-29T00:14:49.769Z,1.65
2023-01-29T00:17:17.776Z,1.63
2023-01-29T00:19:45.475Z,1.66
2023-01-29T00:22:13.085Z,1.69
2023-01-29T00:24:40.728Z,1.70
2023-01-29T00:27:08.472Z,1.73
2023-01-29T00:29:36.107Z,1.76
2023-01-29T00:32:04.076Z,1.80
2023-01-29T00:34:31.917Z,1.81
2023-01-29T00:37:04.914Z,1.70
2023-01-29T00:39:47.415Z,1.88
2023-01-29T00:42:34.364Z,1.88
2023-01-29T00:45:02.333Z,1.87
2023-01-29T00:47:36.509Z,1.83
2023-01-29T00:50:11.237Z,1.83
2023-01-29T00:52:41.141Z,1.83
2023-01-29T00:55:11.290Z,1.89
2023-01-29T00:57:39.517Z,1.99
2023-01-29T01:00:12.922Z,2.00
2023-01-29T01:02:59.519Z,1.95
2023-01-29T01:05:28.100Z,1.87
2023-01-29T01:07:58.292Z,1.85
2023-01-29T01:10:30.884Z,1.75
2023-01-29T01:13:02.832Z,1.76
2023-01-29T01:15:35.354Z,1.76
2023-01-29T01:18:05.194Z,1.75
2023-01-29T01:20:35.830Z,1.79
2023-01-29T01:23:04.323Z,1.78
2023-01-29T01:25:32.623Z,1.79
2023-01-29T01:28:03.167Z,1.76
2023-01-29T01:30:31.021Z,1.81
2023-01-29T01:33:00.007Z,1.83
2023-01-29T01:35:28.265Z,1.85
2023-01-29T01:37:55.894Z,1.85
2023-01-29T01:40:25.796Z,1.83
2023-01-29T01:42:59.525Z,1.88
2023-01-29T01:45:35.971Z,1.87
2023-01-29T01:48:15.354Z,1.88
2023-01-29T01:50:52.624Z,1.90
2023-01-29T01:53:34.324Z,1.91
2023-01-29T01:56:08.335Z,1.94
2023-01-29T01:58:41.760Z,1.98
2023-01-29T02:01:10.400Z,1.97
2023-01-29T02:04:14.319Z,2.06
2023-01-29T02:07:01.844Z,2.06
2023-01-29T02:09:40.261Z,2.06
2023-01-29T02:12:12.997Z,2.01
2023-01-29T02:14:42.678Z,1.96
2023-01-29T02:17:15.077Z,2.05
2023-01-29T02:20:09.537Z,2.02
2023-01-29T02:23:08.030Z,1.98
2023-01-29T02:26:14.091Z,1.93
2023-01-29T02:28:54.829Z,1.88
2023-01-29T02:31:29.623Z,1.90
2023-01-29T02:34:32.162Z,1.96
2023-01-29T02:37:11.388Z,1.95
2023-01-29T02:39:49.789Z,1.93
2023-01-29T02:42:31.449Z,1.94
2023-01-29T02:45:19.693Z,1.93
2023-01-29T02:48:02.201Z,1.97
2023-01-29T02:51:04.790Z,2.02
2023-01-29T02:54:22.577Z,2.06
2023-01-29T02:57:01.397Z,2.05
2023-01-29T02:59:40.254Z,2.05
2023-01-29T03:02:19.125Z,2.00
2023-01-29T03:04:58.751Z,2.05
2023-01-29T03:07:42.576Z,2.05
2023-01-29T03:10:18.574Z,2.04
2023-01-29T03:12:55.699Z,2.04
2023-01-29T03:15:31.285Z,2.05
2023-01-29T03:18:22.795Z,2.01
2023-01-29T03:20:58.590Z,2.01
2023-01-29T03:23:53.907Z,2.01
2023-01-29T03:26:41.703Z,2.00
2023-01-29T03:29:29.407Z,1.96
2023-01-29T03:32:04.238Z,1.96
2023-01-29T03:34:41.942Z,1.97
2023-01-29T03:37:29.639Z,2.00
2023-01-29T03:39:57.650Z,2.02
2023-01-29T03:42:59.962Z,2.00
2023-01-29T03:45:43.030Z,1.93
2023-01-29T03:48:39.650Z,1.97
2023-01-29T03:51:34.471Z,2.04
2023-01-29T03:54:57.401Z,2.03
2023-01-29T03:57:45.608Z,1.97
2023-01-29T04:00:27.987Z,2.03
2023-01-29T04:03:14.835Z,2.09
2023-01-29T04:06:05.603Z,2.04
2023-01-29T04:09:03.917Z,2.01
2023-01-29T04:11:41.659Z,2.04
2023-01-29T04:14:10.022Z,1.98
2023-01-29T04:16:42.574Z,2.03
2023-01-29T04:19:30.456Z,2.03
2023-01-29T04:22:19.293Z,2.03
2023-01-29T04:24:48.834Z,2.02
2023-01-29T04:27:42.077Z,2.10
2023-01-29T04:30:45.083Z,2.12
2023-01-29T04:33:26.624Z,2.13
2023-01-29T04:36:09.110Z,2.14
2023-01-29T04:39:00.837Z,2.17
2023-01-29T04:41:51.860Z,2.15
2023-01-29T04:44:37.418Z,2.16
2023-01-29T04:47:42.007Z,2.15
2023-01-29T04:50:26.424Z,2.16
2023-01-29T04:52:56.781Z,2.14
2023-01-29T04:55:42.813Z,2.12
2023-01-29T04:58:40.301Z,2.16
2023-01-29T05:01:11.530Z,2.15
2023-01-29T05:03:43.239Z,2.11
2023-01-29T05:06:11.756Z,2.07
2023-01-29T05:08:40.981Z,2.14
2023-01-29T05:11:08.891Z,2.13
2023-01-29T05:13:40.023Z,2.02
2023-01-29T05:16:20.074Z,2.14
2023-01-29T05:18:48.032Z,2.12
2023-01-29T05:21:15.929Z,2.15
2023-01-29T05:23:53.342Z,2.13
2023-01-29T05:26:40.551Z,2.12
2023-01-29T05:29:08.413Z,2.14
2023-01-29T05:31:36.036Z,2.15
2023-01-29T05:34:03.715Z,2.13
2023-01-29T05:36:31.348Z,2.14
2023-01-29T05:38:59.007Z,2.13
2023-01-29T05:41:26.663Z,2.10
2023-01-29T05:43:54.282Z,2.15
2023-01-29T05:46:22.090Z,2.11
2023-01-29T05:48:52.732Z,2.07
2023-01-29T05:51:20.589Z,2.08
2023-01-29T05:53:48.362Z,2.09
2023-01-29T05:56:15.991Z,2.04
2023-01-29T05:58:43.703Z,2.05
2023-01-29T06:01:16.523Z,2.14
2023-01-29T06:03:45.153Z,2.14
2023-01-29T06:06:13.342Z,2.12
2023-01-29T06:08:41.397Z,2.20
2023-01-29T06:11:11.497Z,2.25
2023-01-29T06:13:39.505Z,2.26
2023-01-29T06:16:09.085Z,2.28
2023-01-29T06:18:38.022Z,2.37
2023-01-29T06:21:09.722Z,2.30
2023-01-29T06:23:38.113Z,2.24
2023-01-29T06:26:15.587Z,2.25
2023-01-29T06:28:45.183Z,2.27
2023-01-29T06:31:33.024Z,2.27
2023-01-29T06:34:00.562Z,2.24
2023-01-29T06:36:28.226Z,2.32
2023-01-29T06:38:55.923Z,2.22
2023-01-29T06:41:25.677Z,2.17
2023-01-29T06:43:53.437Z,2.23
2023-01-29T06:46:21.269Z,2.21
2023-01-29T06:48:48.911Z,2.23
2023-01-29T06:51:16.570Z,2.18
2023-01-29T06:53:46.216Z,2.27
2023-01-29T06:56:14.540Z,2.26
2023-01-29T06:58:43.577Z,2.23
2023-01-29T07:01:17.522Z,2.18
2023-01-29T07:03:51.785Z,2.24
2023-01-29T07:06:19.669Z,2.22
2023-01-29T07:08:47.532Z,2.28
2023-01-29T07:11:15.239Z,2.30
2023-01-29T07:13:42.881Z,2.23
2023-01-29T07:16:10.744Z,2.29
2023-01-29T07:18:38.541Z,2.26
2023-01-29T07:21:07.445Z,2.25
2023-01-29T07:23:35.581Z,2.28
2023-01-29T07:26:06.923Z,2.25
2023-01-29T07:28:39.255Z,2.30
2023-01-29T07:31:08.981Z,2.19
2023-01-29T07:33:36.812Z,2.29
2023-01-29T07:36:09.750Z,2.36
2023-01-29T07:38:37.440Z,2.30
2023-01-29T07:41:05.402Z,2.34
2023-01-29T07:43:33.382Z,2.37
2023-01-29T07:46:05.903Z,2.42
2023-01-29T07:48:33.820Z,2.39
2023-01-29T07:51:01.865Z,2.43
2023-01-29T07:53:29.895Z,2.45
2023-01-29T07:55:58.114Z,2.46
2023-01-29T07:58:25.940Z,2.44
2023-01-29T08:00:53.645Z,2.42
2023-01-29T08:03:21.449Z,2.37
2023-01-29T08:05:49.271Z,2.40
2023-01-29T08:08:17.031Z,2.35
2023-01-29T08:10:44.762Z,2.49
2023-01-29T08:13:12.516Z,2.54
2023-01-29T08:15:45.166Z,2.57
2023-01-29T08:18:13.852Z,2.49
2023-01-29T08:20:41.560Z,2.49
2023-01-29T08:23:16.501Z,2.56
2023-01-29T08:25:44.419Z,2.51
2023-01-29T08:28:12.539Z,2.50
2023-01-29T08:30:40.818Z,2.61
2023-01-29T08:33:08.558Z,2.61
2023-01-29T08:35:36.895Z,2.61
2023-01-29T08:38:11.980Z,2.62
2023-01-29T08:40:43.740Z,2.53
2023-01-29T08:43:13.656Z,2.56
2023-01-29T08:45:43.849Z,2.58
2023-01-29T08:48:11.784Z,2.58
2023-01-29T08:50:39.737Z,2.65
2023-01-29T08:53:09.492Z,2.70
2023-01-29T08:55:41.179Z,2.70
2023-01-29T08:58:11.940Z,2.74
2023-01-29T09:00:39.824Z,2.75
2023-01-29T09:03:09.184Z,2.79
2023-01-29T09:05:40.995Z,2.73
2023-01-29T09:08:09.987Z,2.78
2023-01-29T09:10:37.858Z,2.76
2023-01-29T09:13:05.757Z,2.80
2023-01-29T09:15:34.546Z,2.82
2023-01-29T09:18:05.849Z,2.83
2023-01-29T09:20:33.821Z,2.85
2023-01-29T09:23:09.826Z,2.81
2023-01-29T09:25:38.144Z,2.89
2023-01-29T09:28:06.320Z,2.91
2023-01-29T09:30:37.577Z,2.89
2023-01-29T09:33:07.116Z,2.94
2023-01-29T09:35:35.211Z,2.96
2023-01-29T09:38:02.853Z,2.99
2023-01-29T09:40:48.566Z,3.06
2023-01-29T09:43:28.874Z,3.11
2023-01-29T09:46:05.599Z,3.09
2023-01-29T09:48:36.291Z,3.15
2023-01-29T09:51:15.081Z,3.16
2023-01-29T09:54:06.144Z,3.17
2023-01-29T09:56:35.107Z,3.18
2023-01-29T09:59:02.826Z,3.25
2023-01-29T10:01:42.395Z,3.35
2023-01-29T10:04:48.286Z,3.33
2023-01-29T10:07:30.985Z,3.43
2023-01-29T10:10:28.007Z,3.48
2023-01-29T10:12:58.694Z,3.52
2023-01-29T10:15:46.525Z,3.58
2023-01-29T10:18:45.310Z,3.67
2023-01-29T10:22:02.416Z,3.73
2023-01-29T10:24:39.334Z,3.74
2023-01-29T10:27:16.268Z,3.73
2023-01-29T10:29:46.873Z,3.75
2023-01-29T10:32:22.044Z,3.77
2023-01-29T10:34:55.715Z,3.75
2023-01-29T10:37:33.035Z,3.73
2023-01-29T10:40:00.913Z,3.82
2023-01-29T10:43:00.844Z,3.83
2023-01-29T10:46:06.499Z,3.85
2023-01-29T10:48:55.063Z,3.84
2023-01-29T10:51:36.451Z,3.83
2023-01-29T10:54:33.438Z,3.84
2023-01-29T10:58:02.931Z,3.94
2023-01-29T11:00:38.178Z,3.99
2023-01-29T11:03:27.584Z,4.04
2023-01-29T11:06:11.830Z,4.16
2023-01-29T11:09:10.132Z,4.23
2023-01-29T11:12:11.814Z,4.22
2023-01-29T11:14:59.066Z,4.20
2023-01-29T11:17:27.455Z,4.16
2023-01-29T11:19:56.253Z,4.11
2023-01-29T11:22:30.349Z,4.24
2023-01-29T11:25:21.126Z,4.21
2023-01-29T11:28:02.505Z,4.32
2023-01-29T11:30:34.632Z,4.36
2023-01-29T11:33:22.747Z,4.26
2023-01-29T11:35:52.617Z,4.25
2023-01-29T11:38:27.106Z,4.24
2023-01-29T11:41:07.743Z,4.25
2023-01-29T11:43:35.612Z,4.22
2023-01-29T11:46:07.303Z,4.25
2023-01-29T11:48:50.328Z,4.23
2023-01-29T11:51:26.189Z,4.33
2023-01-29T11:54:03.802Z,4.34
2023-01-29T11:56:45.581Z,4.33
2023-01-29T11:59:44.265Z,4.43
2023-01-29T12:02:30.682Z,4.51
2023-01-29T12:05:05.917Z,4.52
2023-01-29T12:07:34.694Z,4.58
2023-01-29T12:10:03.452Z,4.57
2023-01-29T12:12:42.568Z,4.62
2023-01-29T12:15:25.147Z,4.67
2023-01-29T12:18:21.738Z,4.73
2023-01-29T12:20:56.265Z,4.73
2023-01-29T12:23:50.352Z,4.74
2023-01-29T12:26:44.483Z,4.75
2023-01-29T12:29:37.167Z,4.87
2023-01-29T12:32:26.598Z,4.90
2023-01-29T12:35:12.991Z,4.83
2023-01-29T12:37:53.926Z,4.91
2023-01-29T12:40:25.799Z,4.99
2023-01-29T12:43:00.750Z,5.02
2023-01-29T12:45:31.149Z,5.08
2023-01-29T12:48:21.228Z,5.10
2023-01-29T12:50:50.321Z,5.16
2023-01-29T12:53:33.636Z,5.21
2023-01-29T12:56:10.748Z,5.27
2023-01-29T12:59:00.851Z,5.35
2023-01-29T13:01:33.088Z,5.30
2023-01-29T13:04:45.562Z,5.38
2023-01-29T13:07:30.523Z,5.37
2023-01-29T13:10:08.461Z,5.38
2023-01-29T13:12:40.279Z,5.41
2023-01-29T13:15:37.411Z,5.45
2023-01-29T13:18:29.431Z,5.38
2023-01-29T13:20:57.640Z,5.35
2023-01-29T13:23:38.095Z,5.34
2023-01-29T13:26:06.515Z,5.31
2023-01-29T13:28:34.446Z,5.32
2023-01-29T13:31:29.485Z,5.28
2023-01-29T13:34:22.689Z,5.33
2023-01-29T13:36:58.297Z,5.34
2023-01-29T13:39:29.918Z,5.29
2023-01-29T13:41:59.664Z,5.33
2023-01-29T13:44:37.117Z,5.25
2023-01-29T13:47:09.140Z,5.28
2023-01-29T13:49:41.115Z,5.36
2023-01-29T13:52:45.064Z,5.31
2023-01-29T13:55:15.989Z,5.28
2023-01-29T13:57:50.293Z,5.21
2023-01-29T14:00:21.079Z,5.24
2023-01-29T14:03:08.836Z,5.22
2023-01-29T14:05:57.231Z,5.18
2023-01-29T14:08:43.599Z,5.23
2023-01-29T14:11:17.371Z,5.18
2023-01-29T14:13:50.091Z,5.15
2023-01-29T14:16:17.836Z,5.13
2023-01-29T14:18:56.370Z,5.08
2023-01-29T14:21:31.967Z,5.09
2023-01-29T14:24:18.230Z,5.07
2023-01-29T14:26:49.646Z,5.02
2023-01-29T14:29:35.048Z,5.06
2023-01-29T14:32:25.507Z,4.99
2023-01-29T14:35:04.301Z,5.05
2023-01-29T14:37:40.312Z,5.06
2023-01-29T14:40:20.131Z,5.09
2023-01-29T14:43:01.946Z,5.04
2023-01-29T14:45:30.577Z,5.05
2023-01-29T14:48:09.972Z,5.08
2023-01-29T14:50:37.894Z,5.12
2023-01-29T14:53:31.435Z,5.14
2023-01-29T14:56:03.547Z,5.15
2023-01-29T14:58:49.069Z,5.09
2023-01-29T15:01:31.048Z,5.07
2023-01-29T15:04:12.974Z,5.16
2023-01-29T15:06:53.384Z,5.09
2023-01-29T15:09:42.241Z,5.13
2023-01-29T15:12:26.044Z,5.08
2023-01-29T15:15:22.339Z,5.09
2023-01-29T15:18:05.986Z,5.04
2023-01-29T15:20:40.712Z,4.97
2023-01-29T15:23:30.776Z,4.92
2023-01-29T15:26:20.516Z,4.92
2023-01-29T15:29:03.555Z,4.95
2023-01-29T15:31:32.432Z,4.87
2023-01-29T15:34:06.665Z,4.91
2023-01-29T15:36:36.719Z,5.00
2023-01-29T15:39:17.651Z,5.02
2023-01-29T15:41:46.435Z,5.02
2023-01-29T15:44:18.670Z,4.99
2023-01-29T15:46:55.203Z,4.93
2023-01-29T15:49:37.978Z,4.96
2023-01-29T15:52:18.417Z,4.92
2023-01-29T15:54:46.816Z,4.97
2023-01-29T15:57:26.007Z,4.97
2023-01-29T15:59:57.019Z,4.89
2023-01-29T16:02:42.925Z,5.01
2023-01-29T16:05:29.052Z,4.88
2023-01-29T16:07:57.344Z,4.98
2023-01-29T16:10:31.610Z,4.89
2023-01-29T16:13:00.107Z,4.94
2023-01-29T16:15:36.219Z,4.90
2023-01-29T16:18:21.201Z,4.91
2023-01-29T16:20:55.754Z,4.90
2023-01-29T16:23:31.739Z,4.95
2023-01-29T16:26:06.361Z,4.86
2023-01-29T16:28:41.549Z,4.81
2023-01-29T16:31:10.619Z,4.87
2023-01-29T16:33:42.429Z,4.93
2023-01-29T16:36:27.463Z,4.85
2023-01-29T16:39:05.566Z,4.88
2023-01-29T16:41:36.495Z,4.87
2023-01-29T16:44:16.674Z,4.90
2023-01-29T16:46:51.194Z,4.92
2023-01-29T16:49:31.520Z,4.94
2023-01-29T16:52:24.201Z,4.89
2023-01-29T16:54:53.627Z,4.79
2023-01-29T16:57:29.298Z,4.90
2023-01-29T17:00:00.492Z,4.86
2023-01-29T17:02:33.388Z,4.70
2023-01-29T17:05:07.537Z,4.84
2023-01-29T17:07:36.826Z,4.85
2023-01-29T17:10:07.036Z,4.82
2023-01-29T17:12:36.768Z,4.81
2023-01-29T17:15:43.688Z,4.77
2023-01-29T17:18:30.560Z,4.77
2023-01-29T17:20:58.244Z,4.80
2023-01-29T17:23:25.888Z,4.78
2023-01-29T17:25:53.952Z,4.77
2023-01-29T17:28:21.966Z,4.69
2023-01-29T17:31:04.987Z,4.71
2023-01-29T17:33:34.862Z,4.72
2023-01-29T17:36:03.337Z,4.72
2023-01-29T17:38:31.034Z,4.72
2023-01-29T17:41:14.596Z,4.69
2023-01-29T17:43:44.157Z,4.64
2023-01-29T17:46:17.322Z,4.55
2023-01-29T17:48:45.699Z,4.58
2023-01-29T17:51:16.410Z,4.63
2023-01-29T17:53:46.694Z,4.68
2023-01-29T17:56:27.506Z,4.72
2023-01-29T17:58:55.389Z,4.76
2023-01-29T18:01:23.029Z,4.72
2023-01-29T18:03:50.736Z,4.75
2023-01-29T18:06:31.807Z,4.70
2023-01-29T18:08:59.531Z,4.84
2023-01-29T18:11:28.233Z,4.82
2023-01-29T18:13:56.787Z,4.85
2023-01-29T18:16:25.439Z,4.88
2023-01-29T18:18:54.455Z,4.85
2023-01-29T18:21:22.750Z,4.83
2023-01-29T18:23:50.440Z,4.84
2023-01-29T18:26:18.187Z,4.78
2023-01-29T18:28:46.094Z,4.78
2023-01-29T18:31:14.468Z,4.78
2023-01-29T18:33:42.387Z,4.81
2023-01-29T18:36:10.156Z,4.81
2023-01-29T18:38:37.777Z,4.86
2023-01-29T18:41:07.433Z,4.87
2023-01-29T18:43:35.094Z,4.88
2023-01-29T18:46:03.459Z,4.82
2023-01-29T18:48:31.172Z,4.75
2023-01-29T18:50:59.242Z,4.79
2023-01-29T18:53:27.249Z,4.80
2023-01-29T18:56:04.596Z,4.82
2023-01-29T18:58:36.547Z,4.78
2023-01-29T19:01:11.827Z,4.86
2023-01-29T19:03:43.185Z,4.87
2023-01-29T19:06:12.192Z,4.89
2023-01-29T19:08:41.039Z,4.85
2023-01-29T19:11:09.673Z,4.87
2023-01-29T19:13:38.361Z,4.92
2023-01-29T19:16:09.151Z,4.91
2023-01-29T19:18:37.022Z,4.90
2023-01-29T19:21:13.787Z,4.90
2023-01-29T19:23:43.246Z,4.87
2023-01-29T19:26:11.755Z,4.93
2023-01-29T19:28:39.778Z,4.90
2023-01-29T19:31:09.298Z,4.98
2023-01-29T19:33:37.288Z,5.03
2023-01-29T19:36:05.620Z,5.00
2023-01-29T19:38:37.927Z,4.89
2023-01-29T19:41:06.446Z,4.99
2023-01-29T19:43:34.264Z,4.94
2023-01-29T19:46:03.376Z,5.01
2023-01-29T19:48:31.121Z,4.97
2023-01-29T19:51:02.582Z,4.97
2023-01-29T19:53:31.765Z,5.06
2023-01-29T19:56:06.368Z,5.07
2023-01-29T19:58:34.783Z,4.99
2023-01-29T20:01:07.490Z,5.04
2023-01-29T20:03:35.216Z,5.09
2023-01-29T20:06:05.676Z,5.01
2023-01-29T20:08:34.968Z,5.12
2023-01-29T20:11:03.324Z,5.14
2023-01-29T20:13:31.975Z,5.00
2023-01-29T20:16:03.178Z,5.17
2023-01-29T20:18:32.195Z,5.15
2023-01-29T20:21:06.001Z,5.24
2023-01-29T20:23:38.146Z,5.27
2023-01-29T20:26:09.036Z,5.33
2023-01-29T20:28:36.976Z,5.23
2023-01-29T20:31:06.906Z,5.37
2023-01-29T20:33:37.547Z,5.41
2023-01-29T20:36:10.043Z,5.40
2023-01-29T20:38:38.168Z,5.41
2023-01-29T20:41:17.809Z,5.36
2023-01-29T20:43:46.872Z,5.43
2023-01-29T20:46:14.690Z,5.46
2023-01-29T20:48:42.817Z,5.42
2023-01-29T20:51:18.981Z,5.22
2023-01-29T20:53:48.213Z,5.38
2023-01-29T20:56:23.101Z,5.20
2023-01-29T20:59:04.226Z,5.40
2023-01-29T21:01:31.950Z,5.22
2023-01-29T21:03:59.886Z,5.53
2023-01-29T21:06:29.561Z,5.54
2023-01-29T21:08:57.344Z,5.56
2023-01-29T21:11:26.078Z,5.45
2023-01-29T21:13:57.675Z,5.58
2023-01-29T21:16:28.623Z,5.62
2023-01-29T21:18:59.518Z,5.63
2023-01-29T21:21:27.565Z,5.61
2023-01-29T21:23:55.448Z,5.59
2023-01-29T21:26:23.576Z,5.61
2023-01-29T21:28:51.351Z,5.65
2023-01-29T21:31:19.067Z,5.70
2023-01-29T21:33:46.781Z,5.71
2023-01-29T21:36:14.696Z,5.70
2023-01-29T21:38:42.432Z,5.72
2023-01-29T21:41:10.493Z,5.74
2023-01-29T21:43:39.035Z,5.72
2023-01-29T21:46:12.088Z,5.75
2023-01-29T21:48:41.079Z,5.83
2023-01-29T21:51:08.989Z,5.83
2023-01-29T21:53:37.328Z,5.81
2023-01-29T21:56:05.971Z,5.87
2023-01-29T21:58:33.860Z,5.82
2023-01-29T22:01:18.461Z,5.82
2023-01-29T22:03:49.215Z,5.81
2023-01-29T22:06:17.102Z,5.81
2023-01-29T22:08:44.925Z,5.83
2023-01-29T22:11:12.790Z,5.78
2023-01-29T22:13:40.512Z,5.77
2023-01-29T22:16:08.652Z,5.81
2023-01-29T22:18:36.447Z,5.79
2023-01-29T22:21:04.245Z,5.77
2023-01-29T22:23:32.431Z,5.80
2023-01-29T22:26:07.126Z,5.71
2023-01-29T22:28:35.360Z,5.81
2023-01-29T22:31:05.493Z,5.78
2023-01-29T22:33:33.552Z,5.84
2023-01-29T22:36:02.030Z,5.90
2023-01-29T22:38:30.685Z,5.91
2023-01-29T22:41:01.093Z,5.96
2023-01-29T22:43:31.609Z,5.95
2023-01-29T22:45:59.385Z,5.97
2023-01-29T22:48:28.565Z,5.96
2023-01-29T22:51:09.496Z,5.92
2023-01-29T22:53:39.206Z,5.87
2023-01-29T22:56:08.339Z,5.97
2023-01-29T22:58:36.238Z,5.90
2023-01-29T23:01:04.503Z,5.94
2023-01-29T23:03:32.231Z,5.92
2023-01-29T23:05:59.961Z,5.79
2023-01-29T23:08:28.069Z,5.87
2023-01-29T23:11:13.893Z,5.81
2023-01-29T23:13:44.689Z,5.78
2023-01-29T23:16:13.525Z,5.85
2023-01-29T23:18:41.904Z,5.79
2023-01-29T23:21:10.393Z,5.74
2023-01-29T23:23:38.826Z,5.79
2023-01-29T23:26:26.394Z,5.85
2023-01-29T23:28:54.133Z,5.85
2023-01-29T23:31:22.100Z,5.79
2023-01-29T23:33:50.488Z,5.89
2023-01-29T23:36:18.243Z,5.91
2023-01-29T23:38:46.023Z,5.92
2023-01-29T23:41:13.944Z,5.89
2023-01-29T23:43:41.717Z,5.86
2023-01-29T23:46:09.336Z,5.85
2023-01-29T23:48:37.279Z,5.87
2023-01-29T23:51:05.109Z,5.80
2023-01-29T23:53:32.807Z,5.76
2023-01-29T23:56:03.542Z,5.78
2023-01-29T23:58:33.013Z,5.79
